Time;durP1;ratioP1;P1;durP2;ratioP2;P2;SDS_P1;SDS_P2;PMS_P1;PMS_P2;Temp;Humidity;BMP_temperature;BMP_pressure;BME280_temperature;BME280_humidity;BME280_pressure;Samples;Min_cycle;Max_cycle;Signal;HPM_P1;HPM_P2
2024/02/29 00:01:15;;;;;;;;;;;;;;;4.51;68.23;101937.55;107565;1255;107443;-62
2024/02/29 00:03:43;;;;;;;;;;;;;;;4.49;68.23;101932.13;107623;1254;107448;-64
2024/02/29 00:06:11;;;;;;;;;;;;;;;4.51;68.35;101931.70;107611;1254;97841;-65
2024/02/29 00:08:39;;;;;;;;;;;;;;;4.48;68.45;101932.00;107560;1254;97923;-62
2024/02/29 00:11:07;;;;;;;;;;;;;;;4.47;68.76;101927.77;107594;1251;110562;-62
2024/02/29 00:13:36;;;;;;;;;;;;;;;4.47;68.60;101924.95;107576;1251;107730;-63
2024/02/29 00:16:04;;;;;;;;;;;;;;;4.47;68.76;101924.78;107580;1251;108211;-63
2024/02/29 00:18:32;;;;;;;;;;;;;;;4.45;68.83;101920.06;107608;1251;97825;-66
2024/02/29 00:21:01;;;;;;;;;;;;;;;4.48;68.80;101923.81;107598;1251;97895;-65
2024/02/29 00:23:30;;;;;;;;;;;;;;;4.50;68.70;101919.64;107580;1257;111329;-66
2024/02/29 00:25:58;;;;;;;;;;;;;;;4.52;68.81;101919.19;107520;1253;108317;-65
2024/02/29 00:28:26;;;;;;;;;;;;;;;4.52;68.80;101922.08;107584;1254;108621;-63
2024/02/29 00:30:54;;;;;;;;;;;;;;;4.51;68.67;101928.88;107558;1251;97907;-63
2024/02/29 00:33:23;;;;;;;;;;;;;;;4.50;68.96;101926.56;107564;1251;97834;-61
2024/02/29 00:35:51;;;;;;;;;;;;;;;4.51;68.94;101921.19;107593;1251;111050;-62
2024/02/29 00:38:31;;;;;;;;;;;;;;;4.49;68.85;101917.57;107618;1251;107946;-63
2024/02/29 00:41:00;;;;;;;;;;;;;;;4.47;68.72;101914.11;107548;1256;107278;-64
2024/02/29 00:43:28;;;;;;;;;;;;;;;4.47;68.97;101910.00;107551;1251;97801;-62
2024/02/29 00:45:56;;;;;;;;;;;;;;;4.49;68.98;101913.47;107552;1254;97824;-62
2024/02/29 00:48:25;;;;;;;;;;;;;;;4.51;68.98;101908.60;107619;1254;111732;-63
2024/02/29 00:50:53;;;;;;;;;;;;;;;4.52;68.92;101911.56;107573;1251;107956;-62
2024/02/29 00:53:21;;;;;;;;;;;;;;;4.54;68.96;101915.38;107489;1251;107585;-62
2024/02/29 00:55:49;;;;;;;;;;;;;;;4.57;68.87;101915.44;107524;1254;97820;-64
2024/02/29 00:58:18;;;;;;;;;;;;;;;4.60;68.94;101913.72;107577;1253;98095;-65
2024/02/29 01:00:46;;;;;;;;;;;;;;;4.63;68.90;101912.34;107627;1256;111854;-64
2024/02/29 01:03:14;;;;;;;;;;;;;;;4.64;68.79;101909.24;107593;1254;107482;-63
2024/02/29 01:05:43;;;;;;;;;;;;;;;4.63;68.80;101908.05;107616;1254;108735;-67
2024/02/29 01:08:11;;;;;;;;;;;;;;;4.63;69.05;101905.03;107591;1255;97921;-62
2024/02/29 01:10:39;;;;;;;;;;;;;;;4.63;68.97;101903.08;107587;1254;97717;-62
2024/02/29 01:13:08;;;;;;;;;;;;;;;4.64;69.16;101906.58;107501;1256;111254;-64
2024/02/29 01:15:36;;;;;;;;;;;;;;;4.61;69.05;101906.36;107643;1253;107414;-62
2024/02/29 01:18:07;;;;;;;;;;;;;;;4.59;69.53;101907.70;107614;1254;108394;-65
2024/02/29 01:20:36;;;;;;;;;;;;;;;4.62;69.69;101906.83;107590;1254;97726;-65
2024/02/29 01:23:04;;;;;;;;;;;;;;;4.64;69.39;101909.95;107615;1254;97848;-65
2024/02/29 01:25:32;;;;;;;;;;;;;;;4.67;69.68;101909.83;107616;1254;111757;-64
2024/02/29 01:28:00;;;;;;;;;;;;;;;4.71;69.73;101904.86;107617;1254;107836;-62
2024/02/29 01:30:28;;;;;;;;;;;;;;;4.75;69.95;101911.63;107585;1256;107875;-65
2024/02/29 01:32:57;;;;;;;;;;;;;;;4.76;69.43;101908.02;107527;1256;97856;-63
2024/02/29 01:35:25;;;;;;;;;;;;;;;4.80;69.66;101906.05;107675;1255;97976;-64
2024/02/29 01:37:54;;;;;;;;;;;;;;;4.82;69.73;101903.80;107593;1256;111081;-65
2024/02/29 01:40:22;;;;;;;;;;;;;;;4.86;69.83;101902.56;107601;1255;107931;-63
2024/02/29 01:42:50;;;;;;;;;;;;;;;4.90;70.00;101899.91;107574;1256;108034;-63
2024/02/29 01:45:19;;;;;;;;;;;;;;;4.93;70.19;101904.72;107570;1255;97909;-63
2024/02/29 01:47:48;;;;;;;;;;;;;;;4.96;69.77;101903.02;107581;1255;97802;-64
2024/02/29 01:50:17;;;;;;;;;;;;;;;4.96;69.86;101899.61;107621;1256;113272;-62
2024/02/29 01:52:45;;;;;;;;;;;;;;;5.01;70.26;101905.27;107591;1255;107930;-66
2024/02/29 01:55:13;;;;;;;;;;;;;;;5.00;70.22;101902.08;107631;1256;107112;-65
2024/02/29 01:57:42;;;;;;;;;;;;;;;4.99;69.94;101904.65;107613;1257;97850;-66
2024/02/29 02:00:11;;;;;;;;;;;;;;;5.02;70.12;101906.44;107668;1252;97845;-65
2024/02/29 02:02:40;;;;;;;;;;;;;;;5.07;70.07;101911.73;107573;1257;111725;-64
2024/02/29 02:05:08;;;;;;;;;;;;;;;5.11;70.00;101915.23;107625;1254;108450;-64
2024/02/29 02:07:37;;;;;;;;;;;;;;;5.14;69.90;101916.19;107614;1254;108567;-63
2024/02/29 02:10:06;;;;;;;;;;;;;;;5.16;69.92;101914.35;107569;1256;97934;-63
2024/02/29 02:12:36;;;;;;;;;;;;;;;5.17;69.71;101910.73;107633;1255;99299;-65
2024/02/29 02:15:05;;;;;;;;;;;;;;;5.23;70.00;101909.23;107625;1254;110571;-62
2024/02/29 02:17:33;;;;;;;;;;;;;;;5.28;70.17;101906.83;107666;1251;106606;-63
2024/02/29 02:20:04;;;;;;;;;;;;;;;5.31;70.02;101910.05;107602;1255;108448;-63
2024/02/29 02:22:33;;;;;;;;;;;;;;;5.27;69.84;101906.54;107572;1254;97909;-64
2024/02/29 02:25:03;;;;;;;;;;;;;;;5.27;70.09;101912.03;107648;1251;97889;-65
2024/02/29 02:27:31;;;;;;;;;;;;;;;5.29;70.22;101913.35;107647;1251;111655;-65
2024/02/29 02:30:06;;;;;;;;;;;;;;;5.31;70.33;101912.55;107581;1254;107241;-65
2024/02/29 02:32:35;;;;;;;;;;;;;;;5.35;70.24;101914.52;107630;1256;107728;-65
2024/02/29 02:35:04;;;;;;;;;;;;;;;5.40;70.27;101915.15;107566;1257;97833;-64
2024/02/29 02:37:32;;;;;;;;;;;;;;;5.44;70.06;101916.71;107594;1254;97921;-63
2024/02/29 02:40:04;;;;;;;;;;;;;;;5.47;70.05;101924.05;107559;1256;111499;-64
2024/02/29 02:42:33;;;;;;;;;;;;;;;5.48;70.02;101926.50;107644;1256;109967;-63
2024/02/29 02:45:01;;;;;;;;;;;;;;;5.46;70.03;101928.05;107595;1257;108361;-63
2024/02/29 02:47:29;;;;;;;;;;;;;;;5.44;70.04;101928.13;107598;1254;97938;-62
2024/02/29 02:49:58;;;;;;;;;;;;;;;5.46;70.20;101926.09;107567;1254;97841;-62
2024/02/29 02:52:26;;;;;;;;;;;;;;;5.45;70.16;101930.00;107534;1253;112338;-63
2024/02/29 02:54:54;;;;;;;;;;;;;;;5.45;70.03;101928.97;107589;1255;108648;-62
2024/02/29 02:57:24;;;;;;;;;;;;;;;5.45;70.03;101934.83;107611;1256;107167;-65
2024/02/29 02:59:53;;;;;;;;;;;;;;;5.45;69.90;101936.09;107474;1254;97921;-65
2024/02/29 03:02:21;;;;;;;;;;;;;;;5.42;69.84;101934.05;107600;1254;97744;-67
2024/02/29 03:04:49;;;;;;;;;;;;;;;5.42;69.90;101939.07;107601;1254;112054;-66
2024/02/29 03:07:19;;;;;;;;;;;;;;;5.44;70.22;101937.03;107681;1256;108868;-63
2024/02/29 03:09:47;;;;;;;;;;;;;;;5.46;70.34;101938.88;107593;1254;107654;-63
2024/02/29 03:12:15;;;;;;;;;;;;;;;5.47;70.32;101939.88;107626;1254;97826;-64
2024/02/29 03:14:44;;;;;;;;;;;;;;;5.48;70.23;101933.25;107580;1254;97902;-63
2024/02/29 03:17:12;;;;;;;;;;;;;;;5.50;70.40;101933.36;107604;1254;111380;-63
2024/02/29 03:19:40;;;;;;;;;;;;;;;5.48;70.45;101933.42;107585;1251;107967;-63
2024/02/29 03:22:09;;;;;;;;;;;;;;;5.48;70.47;101929.89;107599;1254;107853;-63
2024/02/29 03:24:43;;;;;;;;;;;;;;;5.48;70.46;101930.21;107605;1254;97838;-64
2024/02/29 03:27:11;;;;;;;;;;;;;;;5.47;70.64;101933.13;107625;1253;97790;-64
2024/02/29 03:29:41;;;;;;;;;;;;;;;5.50;70.78;101937.81;107606;1254;111756;-62
2024/02/29 03:32:10;;;;;;;;;;;;;;;5.51;70.47;101939.56;107617;1255;107672;-65
2024/02/29 03:34:39;;;;;;;;;;;;;;;5.52;70.34;101935.94;107470;1256;108157;-65
2024/02/29 03:37:07;;;;;;;;;;;;;;;5.55;70.44;101932.74;107582;1254;97841;-63
2024/02/29 03:39:37;;;;;;;;;;;;;;;5.56;70.38;101934.29;107604;1255;97719;-64
2024/02/29 03:42:06;;;;;;;;;;;;;;;5.58;70.44;101933.34;107669;1254;110210;-64
2024/02/29 03:44:34;;;;;;;;;;;;;;;5.58;70.52;101935.45;107596;1254;108848;-62
2024/02/29 03:47:03;;;;;;;;;;;;;;;5.60;70.68;101937.30;107597;1254;108719;-63
2024/02/29 03:49:31;;;;;;;;;;;;;;;5.63;70.63;101936.07;107571;1254;97848;-63
2024/02/29 03:51:59;;;;;;;;;;;;;;;5.67;70.59;101940.14;107644;1251;97736;-62
2024/02/29 03:54:28;;;;;;;;;;;;;;;5.71;70.53;101945.50;107675;1256;111702;-62
2024/02/29 03:56:56;;;;;;;;;;;;;;;5.74;70.70;101948.71;107602;1254;108509;-61
2024/02/29 03:59:25;;;;;;;;;;;;;;;5.77;70.43;101944.83;107618;1254;108063;-64
2024/02/29 04:01:55;;;;;;;;;;;;;;;5.80;70.56;101943.11;107603;1256;97852;-64
2024/02/29 04:04:24;;;;;;;;;;;;;;;5.79;70.75;101938.30;107622;1251;97822;-63
2024/02/29 04:06:52;;;;;;;;;;;;;;;5.80;71.01;101943.09;107505;1251;111054;-63
2024/02/29 04:09:20;;;;;;;;;;;;;;;5.83;71.26;101943.48;107669;1251;108689;-64
2024/02/29 04:11:49;;;;;;;;;;;;;;;5.82;71.30;101943.19;107480;1251;107938;-63
2024/02/29 04:14:17;;;;;;;;;;;;;;;5.84;71.21;101940.80;107607;1254;97822;-62
2024/02/29 04:16:45;;;;;;;;;;;;;;;5.84;71.20;101947.90;107624;1254;98052;-63
2024/02/29 04:19:13;;;;;;;;;;;;;;;5.80;71.33;101953.07;107652;1254;112702;-63
2024/02/29 04:21:42;;;;;;;;;;;;;;;5.77;70.99;101956.23;107587;1254;108376;-63
2024/02/29 04:24:10;;;;;;;;;;;;;;;5.72;71.10;101954.54;107623;1254;107004;-64
2024/02/29 04:26:39;;;;;;;;;;;;;;;5.70;71.19;101947.88;107600;1254;97905;-64
2024/02/29 04:29:07;;;;;;;;;;;;;;;5.66;71.42;101952.15;107598;1252;97850;-63
2024/02/29 04:31:36;;;;;;;;;;;;;;;5.62;71.36;101950.91;107633;1254;111192;-63
2024/02/29 04:34:04;;;;;;;;;;;;;;;5.61;71.68;101953.99;107653;1254;107320;-65
2024/02/29 04:36:32;;;;;;;;;;;;;;;5.61;71.61;101952.73;107604;1254;108322;-64
2024/02/29 04:39:01;;;;;;;;;;;;;;;5.62;71.74;101950.01;107579;1254;97872;-64
2024/02/29 04:41:29;;;;;;;;;;;;;;;5.67;71.89;101952.45;107633;1253;97990;-64
2024/02/29 04:43:57;;;;;;;;;;;;;;;5.73;72.00;101953.08;107643;1254;111240;-65
2024/02/29 04:46:25;;;;;;;;;;;;;;;5.77;72.16;101960.15;107616;1254;107902;-64
2024/02/29 04:48:54;;;;;;;;;;;;;;;5.83;72.11;101964.52;107454;1257;108502;-64
2024/02/29 04:51:23;;;;;;;;;;;;;;;5.85;72.17;101966.70;107602;1254;97876;-64
2024/02/29 04:53:51;;;;;;;;;;;;;;;5.83;72.02;101965.02;107630;1254;97766;-64
2024/02/29 04:56:19;;;;;;;;;;;;;;;5.84;72.04;101964.13;107597;1254;111597;-63
2024/02/29 04:58:48;;;;;;;;;;;;;;;5.85;72.01;101968.14;107558;1254;107760;-64
2024/02/29 05:01:16;;;;;;;;;;;;;;;5.82;72.01;101965.63;107639;1254;107836;-64
2024/02/29 05:03:45;;;;;;;;;;;;;;;5.84;72.21;101971.23;107648;1254;97826;-64
2024/02/29 05:06:16;;;;;;;;;;;;;;;5.86;72.26;101968.80;107653;1254;97800;-64
2024/02/29 05:08:44;;;;;;;;;;;;;;;5.90;72.56;101975.34;107602;1254;111386;-65
2024/02/29 05:11:12;;;;;;;;;;;;;;;5.94;72.73;101973.02;107620;1254;109115;-64
2024/02/29 05:13:41;;;;;;;;;;;;;;;5.98;72.75;101971.61;107656;1252;107539;-65
2024/02/29 05:16:09;;;;;;;;;;;;;;;6.02;72.59;101977.46;107610;1254;97819;-65
2024/02/29 05:18:38;;;;;;;;;;;;;;;6.05;72.71;101979.12;107661;1254;97847;-65
2024/02/29 05:21:06;;;;;;;;;;;;;;;6.08;72.47;101979.51;107545;1255;112381;-65
2024/02/29 05:23:34;;;;;;;;;;;;;;;6.09;72.52;101977.64;107612;1253;108074;-64
2024/02/29 05:26:03;;;;;;;;;;;;;;;6.13;72.53;101979.42;107615;1256;108134;-65
2024/02/29 05:28:31;;;;;;;;;;;;;;;6.13;72.50;101976.58;107617;1253;98515;-63
2024/02/29 05:31:00;;;;;;;;;;;;;;;6.16;72.34;101979.84;107632;1254;97832;-63
2024/02/29 05:33:28;;;;;;;;;;;;;;;6.18;72.57;101980.41;107623;1254;112740;-63
2024/02/29 05:35:56;;;;;;;;;;;;;;;6.22;72.54;101980.36;107648;1254;108178;-63
2024/02/29 05:38:25;;;;;;;;;;;;;;;6.26;72.48;101983.20;107655;1254;108393;-65
2024/02/29 05:40:54;;;;;;;;;;;;;;;6.28;72.45;101981.17;107596;1254;97903;-63
2024/02/29 05:43:22;;;;;;;;;;;;;;;6.24;72.36;101978.14;107663;1254;97713;-63
2024/02/29 05:45:51;;;;;;;;;;;;;;;6.25;72.39;101981.67;107561;1251;111778;-67
2024/02/29 05:48:19;;;;;;;;;;;;;;;6.28;72.37;101988.67;107617;1251;106664;-67
2024/02/29 05:50:48;;;;;;;;;;;;;;;6.34;72.65;101990.82;107560;1254;107856;-69
2024/02/29 05:53:16;;;;;;;;;;;;;;;6.41;72.73;101992.97;107486;1254;97883;-67
2024/02/29 05:55:45;;;;;;;;;;;;;;;6.46;72.53;101997.19;107620;1254;97853;-63
2024/02/29 05:58:13;;;;;;;;;;;;;;;6.47;72.53;102001.77;107590;1254;111518;-65
2024/02/29 06:00:41;;;;;;;;;;;;;;;6.48;72.56;102003.31;107401;1251;108399;-64
2024/02/29 06:03:10;;;;;;;;;;;;;;;6.51;72.75;102003.69;107403;1251;107565;-64
2024/02/29 06:05:38;;;;;;;;;;;;;;;6.49;72.34;102003.42;107436;1254;97850;-64
2024/02/29 06:08:06;;;;;;;;;;;;;;;6.43;72.42;102007.33;107515;1253;97723;-62
2024/02/29 06:10:35;;;;;;;;;;;;;;;6.36;72.84;102008.72;107499;1254;110859;-64
2024/02/29 06:13:03;;;;;;;;;;;;;;;6.32;73.10;102004.33;107462;1254;108632;-63
2024/02/29 06:15:32;;;;;;;;;;;;;;;6.31;72.93;102004.56;107501;1255;107561;-64
2024/02/29 06:18:00;;;;;;;;;;;;;;;6.29;73.14;102001.23;107487;1253;97853;-63
2024/02/29 06:20:29;;;;;;;;;;;;;;;6.29;73.33;102001.62;107563;1251;97720;-64
2024/02/29 06:22:58;;;;;;;;;;;;;;;6.28;73.77;102003.11;107488;1254;111240;-65
2024/02/29 06:25:27;;;;;;;;;;;;;;;6.31;73.95;102005.63;107488;1254;108768;-67
2024/02/29 06:27:55;;;;;;;;;;;;;;;6.37;73.91;102006.38;107522;1256;107602;-65
2024/02/29 06:30:31;;;;;;;;;;;;;;;6.41;73.68;102006.34;107544;1256;98015;-66
2024/02/29 06:33:00;;;;;;;;;;;;;;;6.43;74.02;102010.15;107555;1253;97823;-64
2024/02/29 06:35:29;;;;;;;;;;;;;;;6.46;74.63;102013.95;107586;1254;110674;-63
2024/02/29 06:37:57;;;;;;;;;;;;;;;6.48;74.56;102013.84;107533;1253;107686;-62
2024/02/29 06:40:25;;;;;;;;;;;;;;;6.51;74.26;102013.14;107505;1254;108128;-64
2024/02/29 06:42:54;;;;;;;;;;;;;;;6.50;74.30;102012.66;107332;1254;97839;-62
2024/02/29 06:45:22;;;;;;;;;;;;;;;6.48;74.18;102012.04;107496;1251;97718;-64
2024/02/29 06:47:50;;;;;;;;;;;;;;;6.46;74.41;102013.02;107463;1253;111864;-63
2024/02/29 06:50:19;;;;;;;;;;;;;;;6.47;74.65;102009.44;107457;1256;108533;-67
2024/02/29 06:52:47;;;;;;;;;;;;;;;6.50;74.84;102014.98;107519;1251;108603;-63
2024/02/29 06:55:18;;;;;;;;;;;;;;;6.51;74.75;102013.11;107589;1251;97751;-64
2024/02/29 06:57:47;;;;;;;;;;;;;;;6.55;74.75;102015.75;107357;1254;97888;-66
2024/02/29 07:00:16;;;;;;;;;;;;;;;6.62;75.06;102015.80;107382;1251;111699;-66
2024/02/29 07:02:44;;;;;;;;;;;;;;;6.68;75.30;102018.52;107619;1254;108329;-66
2024/02/29 07:05:12;;;;;;;;;;;;;;;6.77;74.91;102020.17;107478;1254;107949;-65
2024/02/29 07:07:42;;;;;;;;;;;;;;;6.86;74.83;102018.09;107440;1251;97952;-63
2024/02/29 07:10:11;;;;;;;;;;;;;;;6.94;75.00;102015.55;107459;1254;97738;-65
2024/02/29 07:12:40;;;;;;;;;;;;;;;7.01;74.63;102016.94;107480;1251;110521;-63
2024/02/29 07:15:10;;;;;;;;;;;;;;;7.01;74.43;102018.73;107433;1253;107630;-64
2024/02/29 07:17:38;;;;;;;;;;;;;;;6.98;74.30;102016.23;107503;1254;106679;-62
2024/02/29 07:20:08;;;;;;;;;;;;;;;6.95;74.70;102013.73;107491;1253;97931;-63
2024/02/29 07:22:37;;;;;;;;;;;;;;;6.95;74.45;102014.45;107606;1254;97843;-63
2024/02/29 07:25:07;;;;;;;;;;;;;;;6.92;74.26;102012.42;107449;1254;111885;-64
2024/02/29 07:27:38;;;;;;;;;;;;;;;6.93;74.41;102018.84;107518;1252;107048;-63
2024/02/29 07:30:09;;;;;;;;;;;;;;;6.95;74.56;102021.73;107345;1254;110570;-63
2024/02/29 07:32:37;;;;;;;;;;;;;;;6.98;74.65;102025.86;107535;1253;97755;-64
2024/02/29 07:35:07;;;;;;;;;;;;;;;7.03;74.88;102029.14;107514;1254;97713;-65
2024/02/29 07:37:38;;;;;;;;;;;;;;;7.12;74.86;102028.65;107482;1254;111824;-65
2024/02/29 07:40:07;;;;;;;;;;;;;;;7.19;74.55;102020.80;107474;1254;107461;-65
2024/02/29 07:42:37;;;;;;;;;;;;;;;7.25;74.25;102023.70;107500;1251;108482;-62
2024/02/29 07:45:06;;;;;;;;;;;;;;;7.29;73.99;102020.08;107433;1253;97824;-62
2024/02/29 07:47:35;;;;;;;;;;;;;;;7.33;73.87;102015.92;107501;1251;97844;-65
2024/02/29 07:50:05;;;;;;;;;;;;;;;7.33;73.79;102018.44;107399;1253;110925;-65
2024/02/29 07:52:34;;;;;;;;;;;;;;;7.27;73.65;102012.14;107544;1253;108672;-64
2024/02/29 07:55:06;;;;;;;;;;;;;;;7.23;73.87;102012.38;107488;1255;107251;-63
2024/02/29 07:57:34;;;;;;;;;;;;;;;7.22;73.67;102011.91;107543;1256;97918;-64
2024/02/29 08:00:04;;;;;;;;;;;;;;;7.26;73.84;102012.91;107412;1250;97829;-62
2024/02/29 08:02:42;;;;;;;;;;;;;;;7.33;73.80;102013.42;107453;1250;111694;-63
2024/02/29 08:05:10;;;;;;;;;;;;;;;7.40;73.74;102012.17;107387;1251;106780;-64
2024/02/29 08:07:38;;;;;;;;;;;;;;;7.46;73.71;102011.28;107519;1251;108137;-65
2024/02/29 08:10:07;;;;;;;;;;;;;;;7.54;73.86;102010.66;107507;1251;97837;-64
2024/02/29 08:12:35;;;;;;;;;;;;;;;7.58;73.49;102006.34;107325;1254;97828;-65
2024/02/29 08:15:04;;;;;;;;;;;;;;;7.59;73.15;102001.51;107458;1254;111849;-65
2024/02/29 08:17:32;;;;;;;;;;;;;;;7.59;73.25;102003.81;107460;1254;107689;-62
2024/02/29 08:20:00;;;;;;;;;;;;;;;7.63;73.04;102002.47;107509;1254;107653;-64
2024/02/29 08:22:28;;;;;;;;;;;;;;;7.70;73.00;101999.45;107495;1254;97715;-63
2024/02/29 08:24:57;;;;;;;;;;;;;;;7.73;72.80;102002.66;107537;1254;97874;-63
2024/02/29 08:27:26;;;;;;;;;;;;;;;7.71;72.62;102002.98;107594;1255;110243;-63
2024/02/29 08:29:54;;;;;;;;;;;;;;;7.66;72.53;102000.21;107525;1254;106591;-62
2024/02/29 08:32:22;;;;;;;;;;;;;;;7.63;72.72;102000.37;107483;1254;107933;-63
2024/02/29 08:34:50;;;;;;;;;;;;;;;7.62;72.61;102000.80;107426;1254;97851;-66
2024/02/29 08:37:18;;;;;;;;;;;;;;;7.62;72.60;102001.30;107537;1251;97860;-65
2024/02/29 08:39:47;;;;;;;;;;;;;;;7.66;72.80;102003.78;107537;1254;111862;-65
2024/02/29 08:42:15;;;;;;;;;;;;;;;7.66;72.61;102003.21;107625;1253;108437;-64
2024/02/29 08:44:43;;;;;;;;;;;;;;;7.66;72.69;102005.73;107601;1254;107090;-65
2024/02/29 08:47:11;;;;;;;;;;;;;;;7.73;72.94;102007.67;106833;1254;966871;-65
2024/02/29 08:49:39;;;;;;;;;;;;;;;7.81;72.63;102006.15;107599;1251;97701;-64
2024/02/29 08:52:08;;;;;;;;;;;;;;;7.86;72.46;102005.85;107603;1251;112014;-67
2024/02/29 08:54:37;;;;;;;;;;;;;;;7.90;72.43;102009.94;107508;1251;107302;-65
2024/02/29 08:57:07;;;;;;;;;;;;;;;7.94;72.12;102017.04;107494;1251;107737;-62
2024/02/29 08:59:35;;;;;;;;;;;;;;;7.95;72.07;102022.83;107488;1250;98563;-63
2024/02/29 09:02:05;;;;;;;;;;;;;;;7.97;71.78;102025.38;107477;1254;97918;-65
2024/02/29 09:04:34;;;;;;;;;;;;;;;8.00;71.73;102024.55;107595;1254;111829;-61
2024/02/29 09:07:02;;;;;;;;;;;;;;;8.00;71.62;102023.84;107596;1252;108306;-63
2024/02/29 09:09:31;;;;;;;;;;;;;;;7.99;71.64;102026.88;107620;1253;108454;-64
2024/02/29 09:11:59;;;;;;;;;;;;;;;7.98;71.48;102028.04;107563;1252;97845;-64
2024/02/29 09:14:27;;;;;;;;;;;;;;;7.98;71.38;102030.50;107539;1254;97746;-65
2024/02/29 09:16:56;;;;;;;;;;;;;;;8.00;71.44;102028.81;107554;1253;111720;-66
2024/02/29 09:19:24;;;;;;;;;;;;;;;8.04;71.41;102025.39;107686;1254;108339;-66
2024/02/29 09:21:52;;;;;;;;;;;;;;;8.08;71.36;102025.32;107581;1255;107640;-65
2024/02/29 09:24:21;;;;;;;;;;;;;;;8.10;71.46;102027.85;107518;1254;97928;-64
2024/02/29 09:26:49;;;;;;;;;;;;;;;8.13;71.14;102027.34;107627;1254;97736;-66
2024/02/29 09:29:18;;;;;;;;;;;;;;;8.19;71.27;102019.18;107598;1253;109920;-63
2024/02/29 09:31:46;;;;;;;;;;;;;;;8.24;71.05;102021.16;107591;1256;107108;-63
2024/02/29 09:34:14;;;;;;;;;;;;;;;8.27;70.88;102020.84;107549;1254;108526;-65
2024/02/29 09:36:45;;;;;;;;;;;;;;;8.29;70.65;102021.23;107566;1253;97829;-64
2024/02/29 09:39:13;;;;;;;;;;;;;;;8.32;70.59;102022.30;107646;1253;97846;-63
2024/02/29 09:41:41;;;;;;;;;;;;;;;8.35;70.46;102023.22;107555;1254;111122;-63
2024/02/29 09:44:30;;;;;;;;;;;;;;;8.40;70.40;102027.77;107591;1253;108105;-64
2024/02/29 09:46:59;;;;;;;;;;;;;;;8.43;70.29;102031.82;107541;1251;108275;-64
2024/02/29 09:49:28;;;;;;;;;;;;;;;8.45;70.13;102031.72;107479;1251;97929;-63
2024/02/29 09:51:58;;;;;;;;;;;;;;;8.42;69.91;102032.61;107592;1251;97742;-63
2024/02/29 09:54:28;;;;;;;;;;;;;;;8.43;70.01;102035.60;107503;1250;112051;-65
2024/02/29 09:56:56;;;;;;;;;;;;;;;8.41;69.69;102032.48;107625;1254;108514;-64
2024/02/29 09:59:25;;;;;;;;;;;;;;;8.37;69.77;102030.79;107546;1255;108283;-65
2024/02/29 10:01:54;;;;;;;;;;;;;;;8.38;69.83;102024.25;107613;1253;97844;-65
2024/02/29 10:04:26;;;;;;;;;;;;;;;8.39;69.83;102024.02;107679;1253;97762;-64
2024/02/29 10:06:55;;;;;;;;;;;;;;;8.40;69.93;102024.72;107652;1253;111860;-64
2024/02/29 10:09:24;;;;;;;;;;;;;;;8.39;69.86;102020.84;107596;1254;107392;-64
2024/02/29 10:11:53;;;;;;;;;;;;;;;8.36;69.73;102021.52;107583;1254;108461;-64
2024/02/29 10:14:25;;;;;;;;;;;;;;;8.34;69.84;102016.84;107494;1253;97831;-63
2024/02/29 10:16:54;;;;;;;;;;;;;;;8.33;70.03;102010.64;107613;1253;98370;-64
2024/02/29 10:19:23;;;;;;;;;;;;;;;8.29;69.87;102010.49;107595;1254;110989;-63
2024/02/29 10:21:52;;;;;;;;;;;;;;;8.26;69.79;102007.64;107614;1254;108382;-62
2024/02/29 10:24:24;;;;;;;;;;;;;;;8.24;69.89;102000.23;107592;1253;108068;-63
2024/02/29 10:26:59;;;;;;;;;;;;;;;8.24;69.94;101999.02;107619;1253;97835;-63
2024/02/29 10:29:29;;;;;;;;;;;;;;;8.23;69.99;101993.00;107649;1254;97857;-65
2024/02/29 10:32:00;;;;;;;;;;;;;;;8.25;70.03;101990.58;107625;1253;110497;-63
2024/02/29 10:34:28;;;;;;;;;;;;;;;8.24;69.96;101993.12;107623;1254;108546;-63
2024/02/29 10:36:57;;;;;;;;;;;;;;;8.28;70.17;101993.38;107509;1254;108471;-63
2024/02/29 10:39:26;;;;;;;;;;;;;;;8.32;69.90;101990.36;107576;1253;97947;-65
2024/02/29 10:41:55;;;;;;;;;;;;;;;8.33;69.78;101986.70;107623;1253;97707;-64
2024/02/29 10:44:26;;;;;;;;;;;;;;;8.38;69.78;101980.69;107594;1253;111146;-65
2024/02/29 10:46:55;;;;;;;;;;;;;;;8.46;70.01;101978.27;107592;1251;107904;-62
2024/02/29 10:49:29;;;;;;;;;;;;;;;8.51;69.82;101973.33;107543;1253;107629;-65
2024/02/29 10:52:01;;;;;;;;;;;;;;;8.52;69.75;101976.83;107618;1254;97882;-64
2024/02/29 10:54:38;;;;;;;;;;;;;;;8.53;69.60;101975.71;107616;1253;97806;-63
2024/02/29 10:57:08;;;;;;;;;;;;;;;8.56;69.59;101976.24;107606;1255;111419;-63
2024/02/29 10:59:39;;;;;;;;;;;;;;;8.64;69.37;101977.88;107605;1254;108619;-63
2024/02/29 11:02:07;;;;;;;;;;;;;;;8.71;69.08;101983.52;107585;1255;108539;-64
2024/02/29 11:04:36;;;;;;;;;;;;;;;8.78;69.08;101983.80;107587;1253;97816;-64
2024/02/29 11:07:05;;;;;;;;;;;;;;;8.87;69.08;101985.06;107577;1253;97912;-66
2024/02/29 11:09:34;;;;;;;;;;;;;;;8.94;68.57;101986.08;107621;1252;112146;-64
2024/02/29 11:12:11;;;;;;;;;;;;;;;8.97;68.29;101983.94;107606;1252;107985;-65
2024/02/29 11:14:42;;;;;;;;;;;;;;;9.00;67.84;101983.72;107541;1254;109207;-63
2024/02/29 11:17:17;;;;;;;;;;;;;;;9.01;67.62;101984.20;107553;1254;97842;-66
2024/02/29 11:19:56;;;;;;;;;;;;;;;9.01;67.55;101980.46;107639;1252;97730;-70
2024/02/29 11:22:32;;;;;;;;;;;;;;;9.03;67.36;101978.02;107700;1253;110986;-64
2024/02/29 11:25:09;;;;;;;;;;;;;;;9.00;67.25;101971.73;107651;1254;107879;-62
2024/02/29 11:27:46;;;;;;;;;;;;;;;9.01;67.48;101964.35;107690;1253;108587;-63
2024/02/29 11:30:20;;;;;;;;;;;;;;;9.05;67.32;101956.96;107578;1254;97831;-64
2024/02/29 11:32:50;;;;;;;;;;;;;;;9.02;67.03;101953.33;107640;1254;97819;-64
2024/02/29 11:35:19;;;;;;;;;;;;;;;8.99;67.00;101950.70;107594;1255;110582;-63
2024/02/29 11:37:48;;;;;;;;;;;;;;;9.00;67.02;101944.05;107618;1254;107022;-63
2024/02/29 11:40:17;;;;;;;;;;;;;;;8.99;67.19;101938.70;107631;1252;108778;-64
2024/02/29 11:42:45;;;;;;;;;;;;;;;8.98;67.06;101943.96;107563;1254;97957;-67
2024/02/29 11:45:21;;;;;;;;;;;;;;;8.96;67.25;101946.95;107535;1251;97892;-66
2024/02/29 11:47:50;;;;;;;;;;;;;;;8.98;67.07;101946.30;107538;1251;111241;-66
2024/02/29 11:50:19;;;;;;;;;;;;;;;8.97;66.91;101940.96;107402;1254;108291;-66
2024/02/29 11:52:47;;;;;;;;;;;;;;;8.96;66.97;101935.53;107444;1253;108151;-65
2024/02/29 11:55:17;;;;;;;;;;;;;;;8.93;66.94;101928.31;107488;1253;97822;-65
2024/02/29 11:57:46;;;;;;;;;;;;;;;8.89;66.85;101919.81;107505;1254;98005;-64
2024/02/29 12:00:15;;;;;;;;;;;;;;;8.83;66.84;101909.46;107502;1253;111362;-64
2024/02/29 12:02:43;;;;;;;;;;;;;;;8.77;66.94;101903.02;107419;1253;108065;-63
2024/02/29 12:05:12;;;;;;;;;;;;;;;8.72;67.13;101901.20;107461;1253;106764;-65
2024/02/29 12:07:40;;;;;;;;;;;;;;;8.68;67.27;101907.70;107434;1254;97890;-66
2024/02/29 12:10:11;;;;;;;;;;;;;;;8.67;67.09;101911.91;107506;1253;97905;-65
2024/02/29 12:12:39;;;;;;;;;;;;;;;8.69;67.37;101914.30;107552;1253;112320;-65
2024/02/29 12:15:08;;;;;;;;;;;;;;;8.69;67.36;101911.79;107500;1253;108362;-66
2024/02/29 12:17:37;;;;;;;;;;;;;;;8.72;67.34;101911.56;107390;1256;107583;-66
2024/02/29 12:20:05;;;;;;;;;;;;;;;8.77;67.24;101914.70;107426;1253;97758;-65
2024/02/29 12:22:33;;;;;;;;;;;;;;;8.79;67.16;101926.18;107491;1254;97819;-66
2024/02/29 12:25:21;;;;;;;;;;;;;;;8.80;66.92;101919.84;107493;1253;111552;-66
2024/02/29 12:27:49;;;;;;;;;;;;;;;8.74;67.10;101921.32;107466;1253;108150;-65
2024/02/29 12:30:18;;;;;;;;;;;;;;;8.78;66.94;101925.36;107413;1254;108035;-65
2024/02/29 12:32:51;;;;;;;;;;;;;;;8.79;66.97;101927.26;107478;1253;97932;-65
2024/02/29 12:35:19;;;;;;;;;;;;;;;8.84;67.03;101923.20;107473;1252;97740;-64
2024/02/29 12:37:47;;;;;;;;;;;;;;;8.81;66.68;101919.06;107479;1253;111869;-66
2024/02/29 12:40:16;;;;;;;;;;;;;;;8.73;66.71;101913.81;107468;1253;108599;-64